TimeEDT,TemperatureF,Dew PointF,Humidity,Sea Level PressureIn,VisibilityMPH,Wind Direction,Wind SpeedMPH,Gust SpeedMPH,PrecipitationIn,Events,Conditions,WindDirDegrees,DateUTC
12:54 AM,48.0,39.0,71,30.49,10.0,North,8.1,-,N/A,,Partly Cloudy,350,2013-05-03 04:54:00
1:54 AM,46.9,39.0,74,30.47,10.0,North,11.5,-,N/A,,Clear,10,2013-05-03 05:54:00
2:54 AM,46.0,37.9,73,30.46,10.0,North,11.5,-,N/A,,Clear,360,2013-05-03 06:54:00
3:54 AM,45.0,-9999,N/A,30.47,10.0,North,9.2,-,N/A,,Clear,360,2013-05-03 07:54:00
4:54 AM,44.1,33.8,67,30.48,10.0,North,9.2,-,N/A,,Clear,350,2013-05-03 08:54:00
5:54 AM,44.1,33.8,67,30.50,10.0,North,10.4,-,N/A,,Clear,10,2013-05-03 09:54:00
6:54 AM,46.9,34.0,61,30.51,10.0,North,9.2,-,N/A,,Partly Cloudy,10,2013-05-03 10:54:00
7:54 AM,48.0,43.0,83,30.53,10.0,ENE,17.3,-,N/A,,Mostly Cloudy,60,2013-05-03 11:54:00
8:54 AM,50.0,44.1,80,30.53,10.0,ENE,15.0,-,N/A,,Scattered Clouds,60,2013-05-03 12:54:00
9:54 AM,52.0,45.0,77,30.53,10.0,ENE,16.1,-,N/A,,Partly Cloudy,60,2013-05-03 13:54:00
10:54 AM,52.0,42.1,69,30.53,10.0,ENE,16.1,-,N/A,,Scattered Clouds,60,2013-05-03 14:54:00
11:54 AM,50.0,41.0,71,30.52,10.0,ENE,18.4,-,N/A,,Mostly Cloudy,60,2013-05-03 15:54:00
12:01 PM,51.8,42.8,71,30.52,10.0,ENE,15.0,-,N/A,,Mostly Cloudy,60,2013-05-03 16:01:00
12:21 PM,51.8,42.8,71,30.51,10.0,ENE,16.1,-,N/A,,Mostly Cloudy,60,2013-05-03 16:21:00
12:54 PM,52.0,43.0,71,30.50,10.0,East,15.0,-,N/A,,Scattered Clouds,80,2013-05-03 16:54:00
1:54 PM,52.0,42.1,69,30.49,10.0,East,13.8,-,N/A,,Partly Cloudy,80,2013-05-03 17:54:00
2:54 PM,52.0,43.0,71,30.47,10.0,East,15.0,-,N/A,,Partly Cloudy,80,2013-05-03 18:54:00
3:54 PM,51.1,43.0,74,30.45,10.0,East,10.4,-,N/A,,Scattered Clouds,80,2013-05-03 19:54:00
4:54 PM,52.0,43.0,71,30.44,10.0,East,13.8,-,N/A,,Partly Cloudy,80,2013-05-03 20:54:00
5:54 PM,51.1,39.9,66,30.43,10.0,East,16.1,-,N/A,,Partly Cloudy,80,2013-05-03 21:54:00
6:54 PM,48.0,39.9,74,30.43,10.0,East,8.1,-,N/A,,Clear,100,2013-05-03 22:54:00
7:54 PM,48.0,39.9,74,30.42,10.0,Calm,Calm,-,N/A,,Clear,0,2013-05-03 23:54:00
8:54 PM,48.0,39.0,71,30.43,10.0,Calm,Calm,-,N/A,,Clear,0,2013-05-04 00:54:00
9:54 PM,48.9,39.0,69,30.43,10.0,NNE,3.5,-,N/A,,Clear,20,2013-05-04 01:54:00
10:54 PM,50.0,37.9,63,30.40,10.0,North,3.5,-,N/A,,Clear,350,2013-05-04 02:54:00
11:54 PM,50.0,37.9,63,30.38,10.0,NNW,3.5,-,N/A,,Clear,330,2013-05-04 03:54:00